sensor_id;sensor_type;location;lat;lon;timestamp;pressure;altitude;pressure_sealevel;temperature
70123;BMP280;57489;37.404;24.920;2022-08-20T00:04:48;99686.22;;;31.07
70123;BMP280;57489;37.404;24.920;2022-08-20T00:09:48;99680.72;;;30.87
70123;BMP280;57489;37.404;24.920;2022-08-20T00:14:49;99677.94;;;30.90
70123;BMP280;57489;37.404;24.920;2022-08-20T00:19:49;99671.47;;;30.84
70123;BMP280;57489;37.404;24.920;2022-08-20T00:24:50;99670.25;;;30.85
70123;BMP280;57489;37.404;24.920;2022-08-20T00:29:50;99671.88;;;30.83
70123;BMP280;57489;37.404;24.920;2022-08-20T00:34:51;99663.41;;;31.04
70123;BMP280;57489;37.404;24.920;2022-08-20T00:39:51;99647.38;;;31.13
70123;BMP280;57489;37.404;24.920;2022-08-20T00:44:52;99646.63;;;31.13
70123;BMP280;57489;37.404;24.920;2022-08-20T00:49:52;99643.47;;;31.14
70123;BMP280;57489;37.404;24.920;2022-08-20T00:54:56;99645.41;;;31.14
70123;BMP280;57489;37.404;24.920;2022-08-20T00:59:58;99644.63;;;30.94
70123;BMP280;57489;37.404;24.920;2022-08-20T01:04:59;99634.25;;;30.88
70123;BMP280;57489;37.404;24.920;2022-08-20T01:10:05;99630.00;;;30.87
70123;BMP280;57489;37.404;24.920;2022-08-20T01:15:08;99628.84;;;31.08
70123;BMP280;57489;37.404;24.920;2022-08-20T01:20:15;99624.94;;;31.13
70123;BMP280;57489;37.404;24.920;2022-08-20T01:25:28;99616.50;;;31.07
70123;BMP280;57489;37.404;24.920;2022-08-20T01:30:30;99615.59;;;31.14
70123;BMP280;57489;37.404;24.920;2022-08-20T01:35:42;99612.91;;;30.90
70123;BMP280;57489;37.404;24.920;2022-08-20T01:46:16;99609.91;;;30.85
70123;BMP280;57489;37.404;24.920;2022-08-20T01:51:21;99613.50;;;30.78
70123;BMP280;57489;37.404;24.920;2022-08-20T01:56:26;99614.69;;;30.77
70123;BMP280;57489;37.404;24.920;2022-08-20T02:01:31;99613.16;;;30.76
70123;BMP280;57489;37.404;24.920;2022-08-20T02:06:34;99611.97;;;30.77
70123;BMP280;57489;37.404;24.920;2022-08-20T02:11:36;99608.56;;;30.73
70123;BMP280;57489;37.404;24.920;2022-08-20T02:16:39;99603.47;;;30.75
70123;BMP280;57489;37.404;24.920;2022-08-20T02:21:43;99600.06;;;30.71
70123;BMP280;57489;37.404;24.920;2022-08-20T02:26:44;99601.59;;;30.72
70123;BMP280;57489;37.404;24.920;2022-08-20T02:31:45;99600.91;;;30.68
70123;BMP280;57489;37.404;24.920;2022-08-20T02:36:46;99603.84;;;30.77
70123;BMP280;57489;37.404;24.920;2022-08-20T02:41:46;99610.09;;;30.74
70123;BMP280;57489;37.404;24.920;2022-08-20T02:46:48;99617.75;;;30.79
70123;BMP280;57489;37.404;24.920;2022-08-20T02:51:48;99614.44;;;30.91
70123;BMP280;57489;37.404;24.920;2022-08-20T02:56:49;99612.69;;;30.81
70123;BMP280;57489;37.404;24.920;2022-08-20T03:01:50;99616.56;;;30.80
70123;BMP280;57489;37.404;24.920;2022-08-20T03:06:50;99621.75;;;30.71
70123;BMP280;57489;37.404;24.920;2022-08-20T03:11:51;99622.81;;;30.77
70123;BMP280;57489;37.404;24.920;2022-08-20T03:16:51;99636.69;;;31.03
70123;BMP280;57489;37.404;24.920;2022-08-20T03:21:52;99636.88;;;31.15
70123;BMP280;57489;37.404;24.920;2022-08-20T03:26:53;99644.66;;;31.13
70123;BMP280;57489;37.404;24.920;2022-08-20T03:31:53;99645.44;;;30.90
70123;BMP280;57489;37.404;24.920;2022-08-20T03:36:53;99648.34;;;31.00
70123;BMP280;57489;37.404;24.920;2022-08-20T03:41:54;99658.25;;;31.10
70123;BMP280;57489;37.404;24.920;2022-08-20T03:46:55;99655.91;;;31.12
70123;BMP280;57489;37.404;24.920;2022-08-20T03:51:55;99663.69;;;31.10
70123;BMP280;57489;37.404;24.920;2022-08-20T03:56:56;99667.66;;;31.05
70123;BMP280;57489;37.404;24.920;2022-08-20T04:01:56;99674.22;;;31.08
70123;BMP280;57489;37.404;24.920;2022-08-20T04:06:57;99681.84;;;31.13
70123;BMP280;57489;37.404;24.920;2022-08-20T04:11:57;99682.66;;;31.10
70123;BMP280;57489;37.404;24.920;2022-08-20T04:17:03;99683.16;;;31.05
70123;BMP280;57489;37.404;24.920;2022-08-20T04:22:05;99684.69;;;31.06
70123;BMP280;57489;37.404;24.920;2022-08-20T04:27:06;99680.22;;;30.96
70123;BMP280;57489;37.404;24.920;2022-08-20T04:32:06;99675.00;;;30.81
70123;BMP280;57489;37.404;24.920;2022-08-20T04:37:07;99679.19;;;30.86
70123;BMP280;57489;37.404;24.920;2022-08-20T04:42:07;99671.81;;;30.86
70123;BMP280;57489;37.404;24.920;2022-08-20T04:47:08;99672.53;;;30.90
70123;BMP280;57489;37.404;24.920;2022-08-20T04:52:08;99669.94;;;31.07
70123;BMP280;57489;37.404;24.920;2022-08-20T04:57:09;99663.66;;;31.13
70123;BMP280;57489;37.404;24.920;2022-08-20T05:02:09;99660.34;;;31.22
70123;BMP280;57489;37.404;24.920;2022-08-20T05:07:10;99654.00;;;31.32
70123;BMP280;57489;37.404;24.920;2022-08-20T05:12:11;99662.78;;;31.16
70123;BMP280;57489;37.404;24.920;2022-08-20T05:17:12;99662.97;;;31.29
70123;BMP280;57489;37.404;24.920;2022-08-20T05:22:12;99660.19;;;31.33
70123;BMP280;57489;37.404;24.920;2022-08-20T05:27:13;99651.59;;;31.38
70123;BMP280;57489;37.404;24.920;2022-08-20T05:32:13;99658.25;;;31.53
70123;BMP280;57489;37.404;24.920;2022-08-20T05:37:14;99662.63;;;31.67
70123;BMP280;57489;37.404;24.920;2022-08-20T05:42:14;99653.31;;;31.68
70123;BMP280;57489;37.404;24.920;2022-08-20T05:47:15;99647.88;;;31.68
70123;BMP280;57489;37.404;24.920;2022-08-20T05:52:15;99653.88;;;31.79
70123;BMP280;57489;37.404;24.920;2022-08-20T05:57:16;99648.28;;;31.86
70123;BMP280;57489;37.404;24.920;2022-08-20T06:02:17;99649.16;;;31.99
70123;BMP280;57489;37.404;24.920;2022-08-20T06:07:17;99647.09;;;32.07
70123;BMP280;57489;37.404;24.920;2022-08-20T06:12:18;99643.63;;;32.23
70123;BMP280;57489;37.404;24.920;2022-08-20T06:17:18;99648.03;;;32.33
70123;BMP280;57489;37.404;24.920;2022-08-20T06:22:19;99641.44;;;32.50
70123;BMP280;57489;37.404;24.920;2022-08-20T06:27:20;99649.81;;;32.56
70123;BMP280;57489;37.404;24.920;2022-08-20T06:32:22;99653.31;;;32.72
70123;BMP280;57489;37.404;24.920;2022-08-20T06:37:27;99655.00;;;32.66
70123;BMP280;57489;37.404;24.920;2022-08-20T06:42:27;99660.28;;;32.90
70123;BMP280;57489;37.404;24.920;2022-08-20T06:47:28;99654.91;;;32.86
70123;BMP280;57489;37.404;24.920;2022-08-20T06:52:28;99659.38;;;33.09
70123;BMP280;57489;37.404;24.920;2022-08-20T06:57:29;99662.91;;;33.06
70123;BMP280;57489;37.404;24.920;2022-08-20T07:02:29;99671.06;;;33.06
70123;BMP280;57489;37.404;24.920;2022-08-20T07:07:30;99662.44;;;33.11
70123;BMP280;57489;37.404;24.920;2022-08-20T07:12:30;99667.69;;;33.18
70123;BMP280;57489;37.404;24.920;2022-08-20T07:17:31;99666.84;;;33.34
70123;BMP280;57489;37.404;24.920;2022-08-20T07:22:31;99664.09;;;33.63
70123;BMP280;57489;37.404;24.920;2022-08-20T07:27:32;99670.75;;;33.62
70123;BMP280;57489;37.404;24.920;2022-08-20T07:32:33;99669.06;;;33.52
70123;BMP280;57489;37.404;24.920;2022-08-20T07:37:42;99678.03;;;33.65
70123;BMP280;57489;37.404;24.920;2022-08-20T07:42:43;99669.13;;;33.77
70123;BMP280;57489;37.404;24.920;2022-08-20T07:47:44;99666.69;;;33.54
70123;BMP280;57489;37.404;24.920;2022-08-20T07:52:45;99669.28;;;33.45
70123;BMP280;57489;37.404;24.920;2022-08-20T07:57:48;99663.06;;;33.98
70123;BMP280;57489;37.404;24.920;2022-08-20T08:02:48;99678.53;;;34.02
70123;BMP280;57489;37.404;24.920;2022-08-20T08:07:49;99671.78;;;33.93
70123;BMP280;57489;37.404;24.920;2022-08-20T08:12:54;99663.06;;;33.98
70123;BMP280;57489;37.404;24.920;2022-08-20T08:17:59;99663.69;;;34.03
70123;BMP280;57489;37.404;24.920;2022-08-20T08:23:00;99665.63;;;34.15
70123;BMP280;57489;37.404;24.920;2022-08-20T08:28:01;99675.38;;;34.16
70123;BMP280;57489;37.404;24.920;2022-08-20T08:33:02;99668.69;;;34.42
70123;BMP280;57489;37.404;24.920;2022-08-20T08:38:02;99660.19;;;34.15
70123;BMP280;57489;37.404;24.920;2022-08-20T08:43:03;99670.66;;;34.29
70123;BMP280;57489;37.404;24.920;2022-08-20T08:48:04;99663.09;;;34.46
70123;BMP280;57489;37.404;24.920;2022-08-20T08:53:05;99663.88;;;34.46
70123;BMP280;57489;37.404;24.920;2022-08-20T08:58:05;99661.47;;;34.48
70123;BMP280;57489;37.404;24.920;2022-08-20T09:03:28;99658.13;;;34.44
70123;BMP280;57489;37.404;24.920;2022-08-20T09:08:36;99659.41;;;34.52
70123;BMP280;57489;37.404;24.920;2022-08-20T09:13:39;99663.97;;;34.43
70123;BMP280;57489;37.404;24.920;2022-08-20T09:18:40;99653.28;;;34.61
70123;BMP280;57489;37.404;24.920;2022-08-20T09:23:41;99656.28;;;34.63
70123;BMP280;57489;37.404;24.920;2022-08-20T09:28:42;99655.88;;;34.64
70123;BMP280;57489;37.404;24.920;2022-08-20T09:33:42;99650.75;;;34.67
70123;BMP280;57489;37.404;24.920;2022-08-20T09:38:43;99657.28;;;34.69
70123;BMP280;57489;37.404;24.920;2022-08-20T09:43:43;99646.34;;;34.82
70123;BMP280;57489;37.404;24.920;2022-08-20T09:48:44;99652.91;;;34.72
70123;BMP280;57489;37.404;24.920;2022-08-20T09:53:44;99651.38;;;34.71
70123;BMP280;57489;37.404;24.920;2022-08-20T09:58:48;99646.72;;;34.93
70123;BMP280;57489;37.404;24.920;2022-08-20T10:03:49;99640.22;;;34.78
70123;BMP280;57489;37.404;24.920;2022-08-20T10:08:50;99638.03;;;34.73
70123;BMP280;57489;37.404;24.920;2022-08-20T10:13:50;99644.59;;;35.10
70123;BMP280;57489;37.404;24.920;2022-08-20T10:18:51;99641.19;;;35.06
70123;BMP280;57489;37.404;24.920;2022-08-20T10:23:51;99638.34;;;35.09
70123;BMP280;57489;37.404;24.920;2022-08-20T10:28:52;99643.16;;;35.05
70123;BMP280;57489;37.404;24.920;2022-08-20T10:33:52;99631.25;;;34.90
70123;BMP280;57489;37.404;24.920;2022-08-20T10:38:53;99625.88;;;35.30
70123;BMP280;57489;37.404;24.920;2022-08-20T10:43:53;99623.38;;;35.14
70123;BMP280;57489;37.404;24.920;2022-08-20T10:48:54;99616.81;;;35.02
70123;BMP280;57489;37.404;24.920;2022-08-20T10:53:54;99618.97;;;35.07
70123;BMP280;57489;37.404;24.920;2022-08-20T10:58:55;99613.72;;;35.00
70123;BMP280;57489;37.404;24.920;2022-08-20T11:03:55;99619.31;;;35.18
70123;BMP280;57489;37.404;24.920;2022-08-20T11:08:59;99610.66;;;35.42
70123;BMP280;57489;37.404;24.920;2022-08-20T11:13:59;99614.56;;;35.41
70123;BMP280;57489;37.404;24.920;2022-08-20T11:19:00;99610.50;;;35.45
70123;BMP280;57489;37.404;24.920;2022-08-20T11:24:00;99602.09;;;35.31
70123;BMP280;57489;37.404;24.920;2022-08-20T11:29:04;99610.00;;;35.38
70123;BMP280;57489;37.404;24.920;2022-08-20T11:34:04;99601.13;;;35.46
70123;BMP280;57489;37.404;24.920;2022-08-20T11:39:05;99603.28;;;35.51
70123;BMP280;57489;37.404;24.920;2022-08-20T11:44:05;99606.84;;;35.70
70123;BMP280;57489;37.404;24.920;2022-08-20T11:49:06;99600.69;;;35.57
70123;BMP280;57489;37.404;24.920;2022-08-20T11:54:06;99598.22;;;35.81
70123;BMP280;57489;37.404;24.920;2022-08-20T11:59:07;99596.50;;;35.65
70123;BMP280;57489;37.404;24.920;2022-08-20T12:04:07;99592.47;;;35.48
70123;BMP280;57489;37.404;24.920;2022-08-20T12:09:08;99585.22;;;35.54
70123;BMP280;57489;37.404;24.920;2022-08-20T12:14:09;99582.53;;;35.63
70123;BMP280;57489;37.404;24.920;2022-08-20T12:19:09;99573.81;;;35.46
70123;BMP280;57489;37.404;24.920;2022-08-20T12:24:10;99575.91;;;35.91
70123;BMP280;57489;37.404;24.920;2022-08-20T12:29:10;99566.25;;;36.00
70123;BMP280;57489;37.404;24.920;2022-08-20T12:34:10;99564.84;;;35.86
70123;BMP280;57489;37.404;24.920;2022-08-20T12:39:11;99563.50;;;35.90
70123;BMP280;57489;37.404;24.920;2022-08-20T12:44:11;99561.38;;;35.95
70123;BMP280;57489;37.404;24.920;2022-08-20T12:49:12;99562.84;;;35.86
70123;BMP280;57489;37.404;24.920;2022-08-20T12:54:12;99553.56;;;35.66
70123;BMP280;57489;37.404;24.920;2022-08-20T12:59:13;99556.47;;;35.71
70123;BMP280;57489;37.404;24.920;2022-08-20T13:04:13;99553.38;;;35.51
70123;BMP280;57489;37.404;24.920;2022-08-20T13:09:15;99552.66;;;35.69
70123;BMP280;57489;37.404;24.920;2022-08-20T13:14:15;99556.13;;;35.69
70123;BMP280;57489;37.404;24.920;2022-08-20T13:19:16;99552.47;;;35.54
70123;BMP280;57489;37.404;24.920;2022-08-20T13:24:16;99555.13;;;35.45
70123;BMP280;57489;37.404;24.920;2022-08-20T13:29:18;99544.91;;;35.67
70123;BMP280;57489;37.404;24.920;2022-08-20T13:34:18;99542.06;;;35.40
70123;BMP280;57489;37.404;24.920;2022-08-20T13:39:19;99543.06;;;35.64
70123;BMP280;57489;37.404;24.920;2022-08-20T13:44:20;99538.13;;;35.41
70123;BMP280;57489;37.404;24.920;2022-08-20T13:49:21;99537.38;;;35.40
70123;BMP280;57489;37.404;24.920;2022-08-20T13:54:21;99534.22;;;35.42
70123;BMP280;57489;37.404;24.920;2022-08-20T13:59:22;99526.38;;;35.53
70123;BMP280;57489;37.404;24.920;2022-08-20T14:04:22;99534.16;;;35.33
70123;BMP280;57489;37.404;24.920;2022-08-20T14:09:23;99520.09;;;35.03
70123;BMP280;57489;37.404;24.920;2022-08-20T14:14:23;99529.66;;;33.60
70123;BMP280;57489;37.404;24.920;2022-08-20T14:19:24;99510.88;;;33.12
70123;BMP280;57489;37.404;24.920;2022-08-20T14:24:24;99496.47;;;32.98
70123;BMP280;57489;37.404;24.920;2022-08-20T14:29:25;99493.94;;;32.79
70123;BMP280;57489;37.404;24.920;2022-08-20T14:34:25;99498.44;;;32.56
70123;BMP280;57489;37.404;24.920;2022-08-20T14:39:26;99495.31;;;32.58
70123;BMP280;57489;37.404;24.920;2022-08-20T14:44:26;99480.28;;;32.37
70123;BMP280;57489;37.404;24.920;2022-08-20T14:49:28;99487.34;;;32.34
70123;BMP280;57489;37.404;24.920;2022-08-20T14:54:29;99479.47;;;32.24
70123;BMP280;57489;37.404;24.920;2022-08-20T14:59:30;99487.47;;;32.15
70123;BMP280;57489;37.404;24.920;2022-08-20T15:04:32;99487.03;;;33.03
70123;BMP280;57489;37.404;24.920;2022-08-20T15:09:34;99476.50;;;34.16
70123;BMP280;57489;37.404;24.920;2022-08-20T15:14:35;99468.63;;;34.18
70123;BMP280;57489;37.404;24.920;2022-08-20T15:19:35;99463.69;;;34.25
70123;BMP280;57489;37.404;24.920;2022-08-20T15:24:36;99454.78;;;34.25
70123;BMP280;57489;37.404;24.920;2022-08-20T15:29:37;99454.19;;;34.30
70123;BMP280;57489;37.404;24.920;2022-08-20T15:34:39;99450.19;;;34.35
70123;BMP280;57489;37.404;24.920;2022-08-20T15:39:40;99446.38;;;34.32
70123;BMP280;57489;37.404;24.920;2022-08-20T15:44:41;99437.91;;;33.83
70123;BMP280;57489;37.404;24.920;2022-08-20T15:49:43;99431.63;;;33.73
70123;BMP280;57489;37.404;24.920;2022-08-20T15:54:44;99439.28;;;33.65
70123;BMP280;57489;37.404;24.920;2022-08-20T16:10:17;99441.81;;;33.34
70123;BMP280;57489;37.404;24.920;2022-08-20T16:15:31;99436.00;;;33.32
70123;BMP280;57489;37.404;24.920;2022-08-20T16:20:42;99437.31;;;33.28
70123;BMP280;57489;37.404;24.920;2022-08-20T16:31:17;99440.00;;;33.66
70123;BMP280;57489;37.404;24.920;2022-08-20T16:36:41;99443.19;;;33.64
70123;BMP280;57489;37.404;24.920;2022-08-20T16:41:44;99447.22;;;33.60
70123;BMP280;57489;37.404;24.920;2022-08-20T16:46:50;99447.22;;;33.47
70123;BMP280;57489;37.404;24.920;2022-08-20T16:51:52;99444.19;;;33.32
70123;BMP280;57489;37.404;24.920;2022-08-20T16:56:59;99457.72;;;33.23
70123;BMP280;57489;37.404;24.920;2022-08-20T17:02:08;99466.63;;;33.11
70123;BMP280;57489;37.404;24.920;2022-08-20T17:07:09;99459.09;;;33.02
70123;BMP280;57489;37.404;24.920;2022-08-20T17:12:18;99453.44;;;32.97
70123;BMP280;57489;37.404;24.920;2022-08-20T17:17:22;99452.75;;;32.93
70123;BMP280;57489;37.404;24.920;2022-08-20T17:22:26;99452.09;;;32.89
70123;BMP280;57489;37.404;24.920;2022-08-20T17:32:30;99443.44;;;33.19
70123;BMP280;57489;37.404;24.920;2022-08-20T17:37:34;99445.28;;;33.22
70123;BMP280;57489;37.404;24.920;2022-08-20T17:42:53;99455.00;;;33.23
70123;BMP280;57489;37.404;24.920;2022-08-20T17:47:55;99446.16;;;33.19
70123;BMP280;57489;37.404;24.920;2022-08-20T17:53:03;99457.72;;;33.23
70123;BMP280;57489;37.404;24.920;2022-08-20T17:58:10;99459.19;;;33.24
70123;BMP280;57489;37.404;24.920;2022-08-20T18:03:24;99459.41;;;33.17
70123;BMP280;57489;37.404;24.920;2022-08-20T18:08:36;99460.91;;;32.93
70123;BMP280;57489;37.404;24.920;2022-08-20T18:24:37;99461.13;;;32.86
70123;BMP280;57489;37.404;24.920;2022-08-20T18:29:41;99451.09;;;32.83
70123;BMP280;57489;37.404;24.920;2022-08-20T18:34:43;99452.75;;;32.80
70123;BMP280;57489;37.404;24.920;2022-08-20T18:39:45;99460.13;;;32.80
70123;BMP280;57489;37.404;24.920;2022-08-20T18:44:48;99456.16;;;31.77
70123;BMP280;57489;37.404;24.920;2022-08-20T18:50:03;99464.97;;;29.80
70123;BMP280;57489;37.404;24.920;2022-08-20T18:55:09;99465.91;;;29.39
70123;BMP280;57489;37.404;24.920;2022-08-20T19:00:16;99466.25;;;29.10
70123;BMP280;57489;37.404;24.920;2022-08-20T19:05:25;99469.84;;;29.00
70123;BMP280;57489;37.404;24.920;2022-08-20T19:10:33;99472.88;;;28.65
70123;BMP280;57489;37.404;24.920;2022-08-20T19:15:40;99460.69;;;28.49
70123;BMP280;57489;37.404;24.920;2022-08-20T19:20:54;99467.63;;;28.50
70123;BMP280;57489;37.404;24.920;2022-08-20T19:25:59;99461.50;;;28.46
70123;BMP280;57489;37.404;24.920;2022-08-20T19:31:19;99458.63;;;28.16
70123;BMP280;57489;37.404;24.920;2022-08-20T19:36:23;99454.47;;;28.04
70123;BMP280;57489;37.404;24.920;2022-08-20T19:41:29;99460.63;;;28.05
70123;BMP280;57489;37.404;24.920;2022-08-20T19:46:40;99452.28;;;27.88
70123;BMP280;57489;37.404;24.920;2022-08-20T19:51:48;99460.72;;;27.94
70123;BMP280;57489;37.404;24.920;2022-08-20T19:56:57;99451.94;;;27.76
70123;BMP280;57489;37.404;24.920;2022-08-20T20:02:01;99444.25;;;27.71
70123;BMP280;57489;37.404;24.920;2022-08-20T20:07:06;99453.13;;;27.71
70123;BMP280;57489;37.404;24.920;2022-08-20T20:12:11;99455.47;;;27.69
70123;BMP280;57489;37.404;24.920;2022-08-20T20:17:17;99463.59;;;27.55
70123;BMP280;57489;37.404;24.920;2022-08-20T20:27:31;99453.25;;;27.43
70123;BMP280;57489;37.404;24.920;2022-08-20T20:32:40;99452.94;;;27.26
70123;BMP280;57489;37.404;24.920;2022-08-20T20:37:43;99456.41;;;27.20
70123;BMP280;57489;37.404;24.920;2022-08-20T20:42:54;99448.38;;;27.09
70123;BMP280;57489;37.404;24.920;2022-08-20T20:47:56;99442.63;;;27.03
70123;BMP280;57489;37.404;24.920;2022-08-20T20:52:57;99446.06;;;27.11
70123;BMP280;57489;37.404;24.920;2022-08-20T20:58:00;99442.22;;;26.98
70123;BMP280;57489;37.404;24.920;2022-08-20T21:03:01;99441.88;;;26.85
70123;BMP280;57489;37.404;24.920;2022-08-20T21:08:03;99447.63;;;26.91
70123;BMP280;57489;37.404;24.920;2022-08-20T21:13:07;99446.88;;;26.83
70123;BMP280;57489;37.404;24.920;2022-08-20T21:18:08;99445.34;;;26.78
70123;BMP280;57489;37.404;24.920;2022-08-20T21:23:08;99436.91;;;26.69
70123;BMP280;57489;37.404;24.920;2022-08-20T21:28:09;99433.03;;;26.77
70123;BMP280;57489;37.404;24.920;2022-08-20T21:33:10;99425.75;;;26.64
70123;BMP280;57489;37.404;24.920;2022-08-20T21:38:10;99423.88;;;26.57
70123;BMP280;57489;37.404;24.920;2022-08-20T21:43:11;99419.19;;;26.75
70123;BMP280;57489;37.404;24.920;2022-08-20T21:48:12;99420.00;;;26.72
70123;BMP280;57489;37.404;24.920;2022-08-20T21:53:12;99426.16;;;26.62
70123;BMP280;57489;37.404;24.920;2022-08-20T21:58:13;99418.84;;;26.59
70123;BMP280;57489;37.404;24.920;2022-08-20T22:03:14;99408.84;;;26.56
70123;BMP280;57489;37.404;24.920;2022-08-20T22:08:16;99408.47;;;26.51
70123;BMP280;57489;37.404;24.920;2022-08-20T22:13:18;99405.38;;;26.52
70123;BMP280;57489;37.404;24.920;2022-08-20T22:18:18;99400.41;;;26.54
70123;BMP280;57489;37.404;24.920;2022-08-20T22:23:19;99393.81;;;26.80
70123;BMP280;57489;37.404;24.920;2022-08-20T22:28:20;99382.31;;;26.55
70123;BMP280;57489;37.404;24.920;2022-08-20T22:33:21;99380.81;;;26.50
70123;BMP280;57489;37.404;24.920;2022-08-20T22:38:23;99367.97;;;29.28
70123;BMP280;57489;37.404;24.920;2022-08-20T22:43:23;99370.66;;;30.05
70123;BMP280;57489;37.404;24.920;2022-08-20T22:48:25;99357.78;;;30.33
70123;BMP280;57489;37.404;24.920;2022-08-20T22:53:26;99357.50;;;30.47
70123;BMP280;57489;37.404;24.920;2022-08-20T22:58:26;99350.16;;;30.47
70123;BMP280;57489;37.404;24.920;2022-08-20T23:03:27;99359.06;;;30.48
70123;BMP280;57489;37.404;24.920;2022-08-20T23:08:28;99352.09;;;30.47
70123;BMP280;57489;37.404;24.920;2022-08-20T23:13:28;99349.66;;;30.52
70123;BMP280;57489;37.404;24.920;2022-08-20T23:18:29;99349.09;;;30.61
70123;BMP280;57489;37.404;24.920;2022-08-20T23:23:30;99344.19;;;30.56
70123;BMP280;57489;37.404;24.920;2022-08-20T23:28:31;99342.91;;;30.60
70123;BMP280;57489;37.404;24.920;2022-08-20T23:33:31;99334.41;;;30.62
70123;BMP280;57489;37.404;24.920;2022-08-20T23:38:32;99330.97;;;30.58
70123;BMP280;57489;37.404;24.920;2022-08-20T23:43:32;99321.66;;;30.59
70123;BMP280;57489;37.404;24.920;2022-08-20T23:48:35;99329.78;;;30.59
70123;BMP280;57489;37.404;24.920;2022-08-20T23:53:36;99323.91;;;30.64
70123;BMP280;57489;37.404;24.920;2022-08-20T23:58:37;99311.69;;;30.56
